createdAt,value
2022-10-18T00:01:55.505Z,2.67
2022-10-18T00:07:01.265Z,3.17
2022-10-18T00:12:09.750Z,2.67
2022-10-18T00:17:15.187Z,2.90
2022-10-18T00:22:20.483Z,2.40
2022-10-18T00:27:31.845Z,2.83
2022-10-18T00:32:39.866Z,2.90
2022-10-18T00:37:45.463Z,2.90
2022-10-18T00:42:53.663Z,3.25
2022-10-18T00:48:03.451Z,3.07
2022-10-18T00:53:13.049Z,3.45
2022-10-18T00:58:22.845Z,2.80
2022-10-18T01:03:28.272Z,3.07
2022-10-18T01:08:45.746Z,2.97
2022-10-18T01:14:04.019Z,2.95
2022-10-18T01:19:28.612Z,3.07
2022-10-18T01:24:49.030Z,3.47
2022-10-18T01:30:40.578Z,3.13
2022-10-18T01:35:54.614Z,3.20
2022-10-18T01:41:03.327Z,2.90
2022-10-18T01:46:11.584Z,2.75
2022-10-18T01:51:22.051Z,3.83
2022-10-18T01:56:39.926Z,2.85
2022-10-18T02:01:54.790Z,3.10
2022-10-18T02:07:09.510Z,2.53
2022-10-18T02:12:18.365Z,2.85
2022-10-18T02:17:24.397Z,3.20
2022-10-18T02:22:36.142Z,3.80
2022-10-18T02:27:41.617Z,3.50
2022-10-18T02:32:52.339Z,3.97
2022-10-18T02:38:01.318Z,3.97
2022-10-18T02:43:08.830Z,4.03
2022-10-18T02:48:14.420Z,3.58
2022-10-18T02:53:22.215Z,3.95
2022-10-18T02:58:27.583Z,3.63
2022-10-18T03:03:32.960Z,3.60
2022-10-18T03:08:41.517Z,3.13
2022-10-18T03:13:46.874Z,3.10
2022-10-18T03:18:52.311Z,3.40
2022-10-18T03:24:01.413Z,3.00
2022-10-18T03:29:07.721Z,3.50
2022-10-18T03:34:13.145Z,2.90
2022-10-18T03:39:21.198Z,3.47
2022-10-18T03:44:26.766Z,3.33
2022-10-18T03:55:00.100Z,3.88
2022-10-18T04:00:06.522Z,4.03
2022-10-18T04:05:17.704Z,3.70
2022-10-18T04:10:26.102Z,3.42
2022-10-18T04:15:31.666Z,4.20
2022-10-18T04:20:36.913Z,3.70
2022-10-18T04:25:45.548Z,4.30
2022-10-18T04:30:54.005Z,4.70
2022-10-18T04:35:59.598Z,4.82
2022-10-18T04:41:07.928Z,4.50
2022-10-18T04:46:13.831Z,4.00
2022-10-18T04:51:19.391Z,4.70
2022-10-18T04:56:27.788Z,5.22
2022-10-18T05:01:33.489Z,5.00
2022-10-18T05:06:39.151Z,4.95
2022-10-18T05:11:47.200Z,4.13
2022-10-18T05:16:52.404Z,5.00
2022-10-18T05:21:57.986Z,4.90
2022-10-18T05:27:06.743Z,4.97
2022-10-18T05:32:12.276Z,5.53
2022-10-18T05:37:17.707Z,9.67
2022-10-18T05:42:26.443Z,5.45
2022-10-18T05:47:31.715Z,5.93
2022-10-18T05:52:37.220Z,5.97
2022-10-18T05:57:45.428Z,5.88
2022-10-18T06:02:50.937Z,10.25
2022-10-18T06:07:56.721Z,7.03
2022-10-18T06:13:04.757Z,6.80
2022-10-18T06:18:10.383Z,6.50
2022-10-18T06:23:16.306Z,7.37
2022-10-18T06:28:24.700Z,8.48
2022-10-18T06:33:30.228Z,8.32
2022-10-18T06:38:36.406Z,8.47
2022-10-18T06:43:45.034Z,8.30
2022-10-18T06:48:50.486Z,9.40
2022-10-18T06:54:13.270Z,9.07
2022-10-18T06:59:26.313Z,8.43
2022-10-18T07:04:34.233Z,18.00
2022-10-18T07:09:39.972Z,27.13
2022-10-18T07:14:49.458Z,11.07
2022-10-18T07:19:54.867Z,9.73
2022-10-18T07:25:00.561Z,10.67
2022-10-18T07:30:08.814Z,10.65
2022-10-18T07:35:14.689Z,10.85
2022-10-18T07:40:20.261Z,11.97
2022-10-18T07:45:29.034Z,17.40
2022-10-18T07:50:35.215Z,15.38
2022-10-18T07:55:40.996Z,17.00
2022-10-18T08:00:49.047Z,15.02
2022-10-18T08:05:56.151Z,16.33
2022-10-18T08:11:06.194Z,15.63
2022-10-18T08:16:16.130Z,15.13
2022-10-18T08:21:23.615Z,14.90
2022-10-18T08:26:28.859Z,14.05
2022-10-18T08:31:37.643Z,14.77
2022-10-18T08:36:42.816Z,17.38
2022-10-18T08:42:14.962Z,53.20
2022-10-18T08:47:25.357Z,22.60
2022-10-18T08:52:36.860Z,18.08
2022-10-18T08:57:45.814Z,16.90
2022-10-18T09:03:06.750Z,17.63
2022-10-18T09:08:30.089Z,18.52
2022-10-18T09:13:57.671Z,19.30
2022-10-18T09:19:15.944Z,22.93
2022-10-18T09:24:29.153Z,19.42
2022-10-18T09:29:51.383Z,18.30
2022-10-18T09:35:01.776Z,18.60
2022-10-18T09:40:18.865Z,18.25
2022-10-18T09:45:30.789Z,17.90
2022-10-18T09:50:44.450Z,18.67
2022-10-18T09:56:02.454Z,19.00
2022-10-18T10:01:10.331Z,18.30
2022-10-18T10:06:34.846Z,20.73
2022-10-18T10:11:42.594Z,19.50
2022-10-18T10:16:51.891Z,21.25
2022-10-18T10:22:04.747Z,25.20
2022-10-18T10:27:19.563Z,31.47
2022-10-18T10:37:58.418Z,30.63
2022-10-18T10:43:18.390Z,31.93
2022-10-18T10:48:31.028Z,33.70
2022-10-18T10:53:44.206Z,32.78
2022-10-18T10:58:50.653Z,31.80
2022-10-18T11:03:58.451Z,29.70
2022-10-18T11:09:11.703Z,27.98
2022-10-18T11:14:26.205Z,29.70
2022-10-18T11:19:41.558Z,28.87
2022-10-18T11:24:50.101Z,28.05
2022-10-18T11:30:06.820Z,24.65
2022-10-18T11:35:29.695Z,25.17
2022-10-18T11:40:51.371Z,18.33
2022-10-18T11:46:05.674Z,19.05
2022-10-18T11:51:17.435Z,18.48
2022-10-18T11:56:35.308Z,15.03
2022-10-18T12:01:46.601Z,12.73
2022-10-18T12:06:55.173Z,12.98
2022-10-18T12:12:05.712Z,13.17
2022-10-18T12:17:41.835Z,13.48
2022-10-18T12:22:53.194Z,13.45
2022-10-18T12:28:08.366Z,11.40
2022-10-18T12:33:33.481Z,10.23
2022-10-18T12:38:41.841Z,10.40
2022-10-18T12:43:54.992Z,9.50
2022-10-18T12:49:07.766Z,6.43
2022-10-18T12:54:15.334Z,5.45
2022-10-18T13:00:00.804Z,4.90
2022-10-18T13:05:56.729Z,5.17
2022-10-18T13:11:33.522Z,5.53
2022-10-18T13:16:43.862Z,5.47
2022-10-18T13:22:01.444Z,6.30
2022-10-18T13:27:35.530Z,7.40
2022-10-18T13:32:53.455Z,6.50
2022-10-18T13:38:23.564Z,6.30
2022-10-18T13:43:58.220Z,6.30
2022-10-18T13:49:26.624Z,6.60
2022-10-18T13:54:56.751Z,5.70
2022-10-18T14:00:20.093Z,4.50
2022-10-18T14:05:46.325Z,4.30
2022-10-18T14:11:03.769Z,4.63
2022-10-18T14:16:23.003Z,4.77
2022-10-18T14:21:36.097Z,4.10
2022-10-18T14:26:44.636Z,4.53
2022-10-18T14:31:58.749Z,4.38
2022-10-18T14:37:04.191Z,3.63
2022-10-18T14:42:23.125Z,4.28
2022-10-18T14:47:31.451Z,3.50
2022-10-18T14:52:37.448Z,3.90
2022-10-18T14:57:45.718Z,3.83
2022-10-18T15:02:51.677Z,3.13
2022-10-18T15:07:59.864Z,3.60
2022-10-18T15:13:10.439Z,2.90
2022-10-18T15:18:23.693Z,3.33
2022-10-18T15:23:32.165Z,3.10
2022-10-18T15:28:49.910Z,2.90
2022-10-18T15:33:56.651Z,3.38
2022-10-18T15:39:17.865Z,3.45
2022-10-18T15:44:38.090Z,2.90
2022-10-18T15:49:56.302Z,2.60
2022-10-18T15:55:03.894Z,3.05
2022-10-18T16:00:22.177Z,2.90
2022-10-18T16:05:30.996Z,2.30
2022-10-18T16:10:38.626Z,2.72
2022-10-18T16:15:46.883Z,2.07
2022-10-18T16:20:52.502Z,2.40
2022-10-18T16:25:58.816Z,2.50
2022-10-18T16:31:07.393Z,2.50
2022-10-18T16:36:17.162Z,2.17
2022-10-18T16:41:23.899Z,2.78
2022-10-18T16:46:33.985Z,2.42
2022-10-18T16:51:39.685Z,2.07
2022-10-18T16:56:47.962Z,2.55
2022-10-18T17:02:01.639Z,2.25
2022-10-18T17:07:07.760Z,1.97
2022-10-18T17:12:13.219Z,2.55
2022-10-18T17:17:22.506Z,2.55
2022-10-18T17:22:28.196Z,2.83
2022-10-18T17:27:34.109Z,2.65
2022-10-18T17:32:44.416Z,2.25
2022-10-18T17:37:50.634Z,1.77
2022-10-18T17:42:57.415Z,2.28
2022-10-18T17:48:05.466Z,2.65
2022-10-18T17:53:10.846Z,1.90
2022-10-18T17:58:16.599Z,2.33
2022-10-18T18:03:24.696Z,2.50
2022-10-18T18:08:31.087Z,2.33
2022-10-18T18:13:36.316Z,2.30
2022-10-18T18:18:46.669Z,2.42
2022-10-18T18:23:52.770Z,2.20
2022-10-18T18:28:58.109Z,1.80
2022-10-18T18:34:06.256Z,1.77
2022-10-18T18:39:18.976Z,1.63
2022-10-18T18:44:26.205Z,2.15
2022-10-18T18:49:35.417Z,2.10
2022-10-18T18:54:41.017Z,2.47
2022-10-18T18:59:46.490Z,1.90
2022-10-18T19:04:56.193Z,2.25
2022-10-18T19:10:01.580Z,1.83
2022-10-18T19:15:08.359Z,3.17
2022-10-18T19:20:17.837Z,3.78
2022-10-18T19:25:26.261Z,3.70
2022-10-18T19:30:32.667Z,4.03
2022-10-18T19:35:41.122Z,3.20
2022-10-18T19:40:50.313Z,2.83
2022-10-18T19:45:58.190Z,2.65
2022-10-18T19:51:12.248Z,2.72
2022-10-18T19:56:23.614Z,3.00
2022-10-18T20:01:30.404Z,3.13
2022-10-18T20:06:39.031Z,3.20
2022-10-18T20:11:44.855Z,3.90
2022-10-18T20:16:50.137Z,3.50
2022-10-18T20:22:00.200Z,3.10
2022-10-18T20:27:05.410Z,2.90
2022-10-18T20:32:12.055Z,2.50
2022-10-18T20:37:22.356Z,2.92
2022-10-18T20:42:28.436Z,2.70
2022-10-18T20:47:35.455Z,2.55
2022-10-18T20:52:45.208Z,2.10
2022-10-18T20:57:50.617Z,2.30
2022-10-18T21:02:56.837Z,2.30
2022-10-18T21:08:05.225Z,2.35
2022-10-18T21:13:10.395Z,2.43
2022-10-18T21:18:16.081Z,2.17
2022-10-18T21:23:24.832Z,2.07
2022-10-18T21:28:30.571Z,1.70
2022-10-18T21:33:36.163Z,1.75
2022-10-18T21:38:47.513Z,1.80
2022-10-18T21:43:55.786Z,2.20
2022-10-18T21:49:01.546Z,1.80
2022-10-18T21:54:10.992Z,1.83
2022-10-18T21:59:18.310Z,1.43
2022-10-18T22:04:26.682Z,2.22
2022-10-18T22:09:35.899Z,1.60
2022-10-18T22:14:41.138Z,1.45
2022-10-18T22:19:47.572Z,1.75
2022-10-18T22:24:55.608Z,1.70
2022-10-18T22:30:00.896Z,1.40
2022-10-18T22:35:07.774Z,1.27
2022-10-18T22:40:16.634Z,1.40
2022-10-18T22:45:22.062Z,1.40
2022-10-18T22:50:27.305Z,1.40
2022-10-18T22:55:35.456Z,1.50
2022-10-18T23:00:41.039Z,1.60
2022-10-18T23:05:48.479Z,1.33
2022-10-18T23:11:00.414Z,1.93
2022-10-18T23:16:06.583Z,1.30
2022-10-18T23:21:14.041Z,1.90
2022-10-18T23:26:23.712Z,1.58
2022-10-18T23:31:32.688Z,1.60
2022-10-18T23:36:38.598Z,1.50
2022-10-18T23:41:47.088Z,1.80
2022-10-18T23:46:52.449Z,2.23
2022-10-18T23:51:57.934Z,2.10
2022-10-18T23:57:06.019Z,2.50
